FDX1337 KEWR-KMEM
Flight info
| Callsign | FDX1337 |
|---|---|
| Flight time | N/A |
| Altitude | 36000 |
| Route | PARKE J6 LRP/N0467F320 J6 MRB/N0464F360 J6 HVQ Q68 RAMRD BLUZZ5 |
| Aircraft | A306/H-SDE3FGHIRWY/LB1 |
Departure
| Time | 2026-04-30 20:50 |
|---|---|
| Airport | Newark Liberty International Airport (KEWR) |
Arrival
| Time | N/A |
|---|---|
| Airport | Memphis International Airport (KMEM) |
| Time | Latitude | Longitude | Altitude | Speed | Heading |
|---|---|---|---|---|---|
| 2026-04-30 19:51 | 40.67714 | -74.18466 | 28 ft | 0 kts | 206° |
| 2026-04-30 20:23 | 40.67717 | -74.18464 | 28 ft | 3 kts | 206° |
| 2026-04-30 20:24 | 40.67741 | -74.18449 | 27 ft | 4 kts | 206° |
| 2026-04-30 20:24 | 40.67743 | -74.18448 | 28 ft | 4 kts | 206° |
| 2026-04-30 20:25 | 40.67781 | -74.18442 | 26 ft | 4 kts | 118° |
| 2026-04-30 20:25 | 40.67792 | -74.18471 | 28 ft | 2 kts | 115° |
| 2026-04-30 20:26 | 40.67793 | -74.18472 | 28 ft | 0 kts | 115° |
| 2026-04-30 20:31 | 40.67786 | -74.18454 | 28 ft | 5 kts | 115° |
| 2026-04-30 20:32 | 40.67720 | -74.18244 | 28 ft | 11 kts | 115° |
| 2026-04-30 20:32 | 40.67712 | -74.18220 | 28 ft | 0 kts | 116° |
| 2026-04-30 20:41 | 40.67653 | -74.18119 | 28 ft | 14 kts | 141° |
| 2026-04-30 20:41 | 40.67638 | -74.18050 | 28 ft | 7 kts | 62° |
| 2026-04-30 20:41 | 40.67696 | -74.18007 | 27 ft | 12 kts | 24° |
| 2026-04-30 20:41 | 40.67788 | -74.17951 | 28 ft | 17 kts | 24° |
| 2026-04-30 20:42 | 40.67906 | -74.17874 | 28 ft | 21 kts | 27° |
| 2026-04-30 20:42 | 40.68035 | -74.17790 | 28 ft | 20 kts | 26° |
| 2026-04-30 20:42 | 40.68274 | -74.17640 | 27 ft | 18 kts | 25° |
| 2026-04-30 20:43 | 40.68381 | -74.17571 | 29 ft | 16 kts | 26° |
| 2026-04-30 20:43 | 40.68479 | -74.17507 | 29 ft | 15 kts | 26° |
| 2026-04-30 20:43 | 40.68571 | -74.17449 | 29 ft | 14 kts | 25° |
| 2026-04-30 20:44 | 40.68732 | -74.17348 | 29 ft | 12 kts | 25° |
| 2026-04-30 20:44 | 40.68809 | -74.17301 | 29 ft | 13 kts | 25° |
| 2026-04-30 20:44 | 40.68983 | -74.17188 | 28 ft | 15 kts | 26° |
| 2026-04-30 20:45 | 40.69185 | -74.17058 | 28 ft | 17 kts | 26° |
| 2026-04-30 20:45 | 40.69196 | -74.17051 | 28 ft | 17 kts | 26° |
| 2026-04-30 20:45 | 40.69290 | -74.16992 | 28 ft | 17 kts | 25° |
| 2026-04-30 20:46 | 40.69453 | -74.16891 | 28 ft | 18 kts | 26° |
| 2026-04-30 20:46 | 40.69568 | -74.16815 | 28 ft | 19 kts | 26° |
| 2026-04-30 20:47 | 40.69813 | -74.16657 | 27 ft | 20 kts | 27° |
| 2026-04-30 20:47 | 40.69942 | -74.16575 | 27 ft | 20 kts | 25° |
| 2026-04-30 20:48 | 40.70061 | -74.16479 | 27 ft | 0 kts | 77° |
| 2026-04-30 20:48 | 40.70063 | -74.16463 | 26 ft | 7 kts | 81° |
| 2026-04-30 20:48 | 40.70031 | -74.16375 | 27 ft | 14 kts | 166° |
| 2026-04-30 20:49 | 40.69946 | -74.16414 | 25 ft | 15 kts | 206° |
| 2026-04-30 20:49 | 40.69669 | -74.16594 | 28 ft | 78 kts | 205° |
| 2026-04-30 20:49 | 40.68993 | -74.17022 | 28 ft | 135 kts | 205° |
| 2026-04-30 20:50 | 40.66796 | -74.18352 | 619 ft | 195 kts | 204° |
| 2026-04-30 20:50 | 40.65425 | -74.18961 | 1116 ft | 228 kts | 191° |
| 2026-04-30 20:50 | 40.63757 | -74.19161 | 1722 ft | 247 kts | 184° |
| 2026-04-30 20:50 | 40.62125 | -74.19533 | 1925 ft | 229 kts | 207° |
| 2026-04-30 20:51 | 40.61015 | -74.20898 | 1955 ft | 218 kts | 247° |
| 2026-04-30 20:51 | 40.60196 | -74.24781 | 2406 ft | 219 kts | 256° |
| 2026-04-30 20:51 | 40.59739 | -74.26703 | 2515 ft | 221 kts | 254° |
| 2026-04-30 20:52 | 40.59255 | -74.28636 | 2510 ft | 223 kts | 257° |
| 2026-04-30 20:52 | 40.59035 | -74.30638 | 2511 ft | 221 kts | 269° |
| 2026-04-30 20:52 | 40.59006 | -74.34650 | 2505 ft | 220 kts | 271° |
| 2026-04-30 20:53 | 40.59001 | -74.36657 | 2509 ft | 219 kts | 272° |
| 2026-04-30 20:53 | 40.58989 | -74.38665 | 2514 ft | 220 kts | 271° |
| 2026-04-30 20:53 | 40.58971 | -74.40681 | 2510 ft | 221 kts | 271° |
| 2026-04-30 20:54 | 40.58903 | -74.44718 | 2504 ft | 221 kts | 270° |
| 2026-04-30 20:54 | 40.58863 | -74.46739 | 2490 ft | 221 kts | 271° |
| 2026-04-30 20:54 | 40.58823 | -74.48749 | 2490 ft | 221 kts | 271° |
| 2026-04-30 20:55 | 40.58753 | -74.52805 | 2500 ft | 222 kts | 270° |
| 2026-04-30 20:55 | 40.58715 | -74.54824 | 2794 ft | 222 kts | 271° |
| 2026-04-30 20:55 | 40.58757 | -74.56930 | 3244 ft | 239 kts | 280° |
| 2026-04-30 20:56 | 40.59466 | -74.61327 | 5014 ft | 251 kts | 284° |
| 2026-04-30 20:56 | 40.59882 | -74.63583 | 5986 ft | 255 kts | 284° |
| 2026-04-30 20:56 | 40.60757 | -74.68167 | 7937 ft | 261 kts | 283° |
| 2026-04-30 20:57 | 40.61203 | -74.70490 | 8940 ft | 264 kts | 283° |
| 2026-04-30 20:57 | 40.61655 | -74.72844 | 9901 ft | 267 kts | 283° |
| 2026-04-30 20:57 | 40.62118 | -74.75242 | 10584 ft | 278 kts | 283° |
| 2026-04-30 20:58 | 40.63135 | -74.80534 | 11265 ft | 317 kts | 282° |
| 2026-04-30 20:58 | 40.63691 | -74.83427 | 11556 ft | 334 kts | 282° |
| 2026-04-30 20:58 | 40.64275 | -74.86468 | 11854 ft | 350 kts | 282° |
| 2026-04-30 20:58 | 40.64880 | -74.89621 | 12300 ft | 359 kts | 282° |
| 2026-04-30 20:59 | 40.66119 | -74.96088 | 13541 ft | 368 kts | 282° |
| 2026-04-30 20:59 | 40.66745 | -74.99362 | 14161 ft | 369 kts | 282° |
| 2026-04-30 21:00 | 40.67584 | -75.06026 | 15445 ft | 369 kts | 267° |
| 2026-04-30 21:00 | 40.66208 | -75.12462 | 16747 ft | 369 kts | 244° |
| 2026-04-30 21:01 | 40.63661 | -75.18354 | 17027 ft | 371 kts | 239° |
| 2026-04-30 21:01 | 40.62290 | -75.21231 | 17023 ft | 372 kts | 239° |
| 2026-04-30 21:01 | 40.59542 | -75.26992 | 17017 ft | 372 kts | 239° |
| 2026-04-30 21:02 | 40.58186 | -75.29887 | 17031 ft | 371 kts | 240° |
| 2026-04-30 21:02 | 40.56841 | -75.32793 | 17241 ft | 374 kts | 240° |
| 2026-04-30 21:02 | 40.55492 | -75.35727 | 17929 ft | 374 kts | 240° |
| 2026-04-30 21:02 | 40.54150 | -75.38655 | 18544 ft | 374 kts | 240° |
| 2026-04-30 21:03 | 40.52809 | -75.41582 | 19032 ft | 375 kts | 240° |
| 2026-04-30 21:03 | 40.51454 | -75.44533 | 19543 ft | 377 kts | 240° |
| 2026-04-30 21:03 | 40.50098 | -75.47485 | 20034 ft | 378 kts | 240° |
| 2026-04-30 21:03 | 40.48733 | -75.50449 | 20450 ft | 381 kts | 240° |
| 2026-04-30 21:04 | 40.47357 | -75.53434 | 20875 ft | 383 kts | 240° |
| 2026-04-30 21:04 | 40.45970 | -75.56439 | 21313 ft | 386 kts | 240° |
| 2026-04-30 21:04 | 40.43171 | -75.62494 | 22113 ft | 390 kts | 240° |
| 2026-04-30 21:05 | 40.41761 | -75.65540 | 22526 ft | 392 kts | 240° |
| 2026-04-30 21:05 | 40.40344 | -75.68596 | 22915 ft | 394 kts | 240° |
| 2026-04-30 21:05 | 40.38934 | -75.71634 | 23292 ft | 396 kts | 240° |
| 2026-04-30 21:05 | 40.37479 | -75.74769 | 23627 ft | 398 kts | 240° |
| 2026-04-30 21:06 | 40.36034 | -75.77876 | 23918 ft | 400 kts | 240° |
| 2026-04-30 21:06 | 40.34583 | -75.80995 | 24247 ft | 402 kts | 240° |
| 2026-04-30 21:06 | 40.33138 | -75.84095 | 24542 ft | 404 kts | 240° |
| 2026-04-30 21:06 | 40.32147 | -75.86221 | 24751 ft | 405 kts | 240° |
| 2026-04-30 21:07 | 40.30674 | -75.89379 | 25025 ft | 407 kts | 240° |
| 2026-04-30 21:07 | 40.29192 | -75.92552 | 25309 ft | 409 kts | 240° |
| 2026-04-30 21:07 | 40.27705 | -75.95733 | 25547 ft | 411 kts | 240° |
| 2026-04-30 21:07 | 40.25721 | -75.99973 | 25842 ft | 413 kts | 240° |
| 2026-04-30 21:08 | 40.24707 | -76.02137 | 26001 ft | 415 kts | 240° |
| 2026-04-30 21:08 | 40.22705 | -76.06404 | 26319 ft | 417 kts | 240° |
| 2026-04-30 21:08 | 40.21675 | -76.08599 | 26478 ft | 418 kts | 240° |
| 2026-04-30 21:08 | 40.20157 | -76.11830 | 26719 ft | 420 kts | 240° |
| 2026-04-30 21:09 | 40.18622 | -76.15093 | 26987 ft | 421 kts | 240° |
| 2026-04-30 21:09 | 40.17087 | -76.18352 | 27383 ft | 418 kts | 240° |
| 2026-04-30 21:09 | 40.15564 | -76.21581 | 27767 ft | 416 kts | 240° |
| 2026-04-30 21:09 | 40.14045 | -76.24799 | 28116 ft | 416 kts | 240° |
| 2026-04-30 21:10 | 40.12527 | -76.28011 | 28439 ft | 415 kts | 240° |
| 2026-04-30 21:10 | 40.11020 | -76.31228 | 28782 ft | 414 kts | 240° |
| 2026-04-30 21:10 | 40.09531 | -76.34447 | 29075 ft | 414 kts | 241° |
| 2026-04-30 21:10 | 40.08049 | -76.37667 | 29324 ft | 415 kts | 241° |
| 2026-04-30 21:11 | 40.06564 | -76.40899 | 29633 ft | 415 kts | 241° |
| 2026-04-30 21:11 | 40.05080 | -76.44122 | 29967 ft | 414 kts | 241° |
| 2026-04-30 21:11 | 40.03595 | -76.47342 | 30254 ft | 414 kts | 241° |
| 2026-04-30 21:11 | 40.02109 | -76.50556 | 30556 ft | 413 kts | 241° |
| 2026-04-30 21:12 | 40.00625 | -76.53759 | 30907 ft | 411 kts | 241° |
| 2026-04-30 21:12 | 39.99146 | -76.56944 | 31235 ft | 410 kts | 241° |
| 2026-04-30 21:12 | 39.97668 | -76.60128 | 31488 ft | 411 kts | 241° |
| 2026-04-30 21:12 | 39.96190 | -76.63309 | 31753 ft | 411 kts | 241° |
| 2026-04-30 21:13 | 39.94707 | -76.66495 | 32036 ft | 411 kts | 241° |
| 2026-04-30 21:13 | 39.93226 | -76.69675 | 32302 ft | 411 kts | 241° |
| 2026-04-30 21:13 | 39.91744 | -76.72854 | 32594 ft | 411 kts | 241° |
| 2026-04-30 21:13 | 39.90259 | -76.76035 | 32889 ft | 410 kts | 241° |
| 2026-04-30 21:14 | 39.88778 | -76.79204 | 33158 ft | 410 kts | 241° |
| 2026-04-30 21:14 | 39.87291 | -76.82385 | 33426 ft | 410 kts | 241° |
| 2026-04-30 21:14 | 39.85807 | -76.85554 | 33723 ft | 410 kts | 240° |
| 2026-04-30 21:14 | 39.84343 | -76.88676 | 33995 ft | 410 kts | 241° |
| 2026-04-30 21:15 | 39.82861 | -76.91835 | 34277 ft | 409 kts | 241° |
| 2026-04-30 21:15 | 39.81382 | -76.94986 | 34484 ft | 409 kts | 241° |
| 2026-04-30 21:15 | 39.79897 | -76.98145 | 34694 ft | 409 kts | 241° |
| 2026-04-30 21:15 | 39.78413 | -77.01300 | 34913 ft | 410 kts | 241° |
| 2026-04-30 21:16 | 39.76921 | -77.04470 | 35112 ft | 410 kts | 241° |
| 2026-04-30 21:16 | 39.75431 | -77.07629 | 35330 ft | 410 kts | 241° |
| 2026-04-30 21:16 | 39.73939 | -77.10792 | 35512 ft | 410 kts | 241° |
| 2026-04-30 21:16 | 39.72447 | -77.13949 | 35716 ft | 411 kts | 241° |
| 2026-04-30 21:17 | 39.70951 | -77.17113 | 35938 ft | 411 kts | 241° |
| 2026-04-30 21:17 | 39.69454 | -77.20275 | 36058 ft | 412 kts | 240° |
| 2026-04-30 21:17 | 39.66454 | -77.26603 | 36073 ft | 412 kts | 241° |
| 2026-04-30 21:18 | 39.63446 | -77.32933 | 36088 ft | 412 kts | 241° |
| 2026-04-30 21:18 | 39.60435 | -77.39256 | 36091 ft | 412 kts | 241° |
| 2026-04-30 21:19 | 39.57422 | -77.45571 | 36093 ft | 412 kts | 241° |
| 2026-04-30 21:19 | 39.54406 | -77.51882 | 36094 ft | 412 kts | 241° |
| 2026-04-30 21:20 | 39.51389 | -77.58182 | 36089 ft | 411 kts | 241° |
| 2026-04-30 21:20 | 39.48370 | -77.64472 | 36091 ft | 411 kts | 241° |
| 2026-04-30 21:21 | 39.45356 | -77.70741 | 36081 ft | 410 kts | 241° |
| 2026-04-30 21:22 | 39.40823 | -77.80146 | 36077 ft | 410 kts | 241° |
| 2026-04-30 21:23 | 39.35232 | -77.92947 | 36091 ft | 407 kts | 246° |
| 2026-04-30 21:23 | 39.31433 | -78.02751 | 36104 ft | 406 kts | 246° |
| 2026-04-30 21:24 | 39.28869 | -78.09248 | 36112 ft | 406 kts | 246° |
| 2026-04-30 21:24 | 39.26290 | -78.15718 | 36118 ft | 406 kts | 246° |
| 2026-04-30 21:25 | 39.22404 | -78.25422 | 36120 ft | 406 kts | 246° |
| 2026-04-30 21:26 | 39.18519 | -78.35101 | 36112 ft | 404 kts | 246° |
| 2026-04-30 21:27 | 39.14632 | -78.44747 | 36117 ft | 404 kts | 246° |
| 2026-04-30 21:27 | 39.12043 | -78.51164 | 36107 ft | 404 kts | 246° |
| 2026-04-30 21:28 | 39.08168 | -78.60742 | 36105 ft | 404 kts | 246° |
| 2026-04-30 21:29 | 39.04268 | -78.70349 | 36129 ft | 404 kts | 246° |
| 2026-04-30 21:30 | 38.97778 | -78.86270 | 36129 ft | 401 kts | 246° |
| 2026-04-30 21:31 | 38.91274 | -79.02139 | 36143 ft | 401 kts | 246° |
| 2026-04-30 21:32 | 38.87364 | -79.11635 | 36132 ft | 400 kts | 247° |
| 2026-04-30 21:32 | 38.84822 | -79.17968 | 36096 ft | 397 kts | 250° |
| 2026-04-30 21:33 | 38.82511 | -79.28014 | 36161 ft | 389 kts | 259° |
| 2026-04-30 21:34 | 38.81303 | -79.34769 | 36153 ft | 389 kts | 260° |
| 2026-04-30 21:34 | 38.79508 | -79.44908 | 36172 ft | 389 kts | 260° |
| 2026-04-30 21:35 | 38.78295 | -79.51646 | 36166 ft | 388 kts | 260° |
| 2026-04-30 21:35 | 38.77070 | -79.58373 | 36191 ft | 388 kts | 260° |
| 2026-04-30 21:36 | 38.75839 | -79.65113 | 36191 ft | 388 kts | 260° |
| 2026-04-30 21:37 | 38.73374 | -79.78551 | 36196 ft | 388 kts | 260° |
| 2026-04-30 21:37 | 38.72141 | -79.85233 | 36196 ft | 387 kts | 260° |
| 2026-04-30 21:38 | 38.70903 | -79.91935 | 36198 ft | 387 kts | 260° |
| 2026-04-30 21:38 | 38.69658 | -79.98630 | 36202 ft | 387 kts | 260° |
| 2026-04-30 21:39 | 38.68411 | -80.05324 | 36201 ft | 384 kts | 260° |
| 2026-04-30 21:39 | 38.67178 | -80.11930 | 36203 ft | 381 kts | 260° |
| 2026-04-30 21:40 | 38.65942 | -80.18523 | 36210 ft | 381 kts | 260° |
| 2026-04-30 21:40 | 38.64701 | -80.25108 | 36211 ft | 381 kts | 260° |
| 2026-04-30 21:41 | 38.63459 | -80.31692 | 36200 ft | 381 kts | 260° |
| 2026-04-30 21:41 | 38.62214 | -80.38275 | 36198 ft | 381 kts | 260° |
| 2026-04-30 21:42 | 38.60965 | -80.44845 | 36196 ft | 380 kts | 260° |
| 2026-04-30 21:42 | 38.59712 | -80.51416 | 36188 ft | 381 kts | 260° |
| 2026-04-30 21:43 | 38.58666 | -80.56880 | 36197 ft | 380 kts | 261° |
| 2026-04-30 21:43 | 38.57199 | -80.64522 | 36193 ft | 378 kts | 261° |
| 2026-04-30 21:44 | 38.55944 | -80.71039 | 36187 ft | 377 kts | 261° |
| 2026-04-30 21:44 | 38.54690 | -80.77549 | 36197 ft | 377 kts | 260° |
| 2026-04-30 21:45 | 38.53427 | -80.84057 | 36195 ft | 378 kts | 260° |
| 2026-04-30 21:45 | 38.52163 | -80.90539 | 36193 ft | 374 kts | 261° |
| 2026-04-30 21:46 | 38.50910 | -80.96954 | 36201 ft | 371 kts | 261° |
| 2026-04-30 21:46 | 38.49671 | -81.03291 | 36199 ft | 370 kts | 261° |
| 2026-04-30 21:47 | 38.48422 | -81.09656 | 36210 ft | 370 kts | 261° |
| 2026-04-30 21:47 | 38.47171 | -81.16017 | 36211 ft | 370 kts | 261° |
| 2026-04-30 21:48 | 38.45913 | -81.22387 | 36215 ft | 370 kts | 261° |
| 2026-04-30 21:48 | 38.44653 | -81.28748 | 36211 ft | 370 kts | 261° |
| 2026-04-30 21:49 | 38.43393 | -81.35087 | 36211 ft | 367 kts | 261° |
| 2026-04-30 21:49 | 38.42136 | -81.41391 | 36222 ft | 366 kts | 261° |
| 2026-04-30 21:50 | 38.40880 | -81.47680 | 36221 ft | 366 kts | 261° |
| 2026-04-30 21:50 | 38.39620 | -81.53966 | 36225 ft | 366 kts | 261° |
| 2026-04-30 21:51 | 38.38355 | -81.60250 | 36232 ft | 366 kts | 261° |
| 2026-04-30 21:51 | 38.37087 | -81.66535 | 36233 ft | 366 kts | 261° |
| 2026-04-30 21:52 | 38.35818 | -81.72801 | 36213 ft | 364 kts | 261° |
| 2026-04-30 21:52 | 38.34401 | -81.78937 | 36234 ft | 359 kts | 258° |
| 2026-04-30 21:53 | 38.32765 | -81.84934 | 36229 ft | 359 kts | 257° |
| 2026-04-30 21:53 | 38.31093 | -81.90904 | 36229 ft | 359 kts | 257° |
| 2026-04-30 21:54 | 38.29692 | -81.95880 | 36235 ft | 359 kts | 257° |
| 2026-04-30 21:54 | 38.28009 | -82.01860 | 36233 ft | 359 kts | 257° |
| 2026-04-30 21:55 | 38.26324 | -82.07841 | 36233 ft | 359 kts | 257° |
| 2026-04-30 21:55 | 38.24635 | -82.13820 | 36227 ft | 359 kts | 257° |
| 2026-04-30 21:56 | 38.22949 | -82.19784 | 36226 ft | 359 kts | 257° |
| 2026-04-30 21:56 | 38.21257 | -82.25755 | 36228 ft | 359 kts | 257° |
| 2026-04-30 21:57 | 38.19563 | -82.31721 | 36220 ft | 359 kts | 257° |
| 2026-04-30 21:57 | 38.17869 | -82.37668 | 36226 ft | 359 kts | 257° |
| 2026-04-30 21:58 | 38.16167 | -82.43628 | 36232 ft | 359 kts | 257° |
| 2026-04-30 21:58 | 38.14465 | -82.49581 | 36226 ft | 358 kts | 257° |
| 2026-04-30 21:59 | 38.12759 | -82.55531 | 36230 ft | 359 kts | 257° |
| 2026-04-30 22:00 | 38.10194 | -82.64447 | 36228 ft | 358 kts | 257° |
| 2026-04-30 22:00 | 38.07624 | -82.73355 | 36234 ft | 358 kts | 257° |
| 2026-04-30 22:01 | 38.05905 | -82.79293 | 36224 ft | 358 kts | 257° |
| 2026-04-30 22:01 | 38.04187 | -82.85211 | 36223 ft | 357 kts | 257° |
| 2026-04-30 22:02 | 38.02469 | -82.91126 | 36235 ft | 357 kts | 257° |
| 2026-04-30 22:02 | 38.00746 | -82.97037 | 36230 ft | 357 kts | 257° |
| 2026-04-30 22:03 | 37.99031 | -83.02914 | 36235 ft | 358 kts | 257° |
| 2026-04-30 22:03 | 37.97308 | -83.08808 | 36232 ft | 355 kts | 257° |
| 2026-04-30 22:04 | 37.95597 | -83.14635 | 36236 ft | 351 kts | 257° |
| 2026-04-30 22:05 | 37.93054 | -83.23292 | 36239 ft | 349 kts | 257° |
| 2026-04-30 22:05 | 37.91361 | -83.29043 | 36239 ft | 349 kts | 257° |
| 2026-04-30 22:06 | 37.89663 | -83.34789 | 36235 ft | 349 kts | 257° |
| 2026-04-30 22:06 | 37.87110 | -83.43420 | 36235 ft | 349 kts | 257° |
| 2026-04-30 22:07 | 37.85405 | -83.49163 | 36236 ft | 349 kts | 257° |
| 2026-04-30 22:07 | 37.83695 | -83.54908 | 36236 ft | 349 kts | 257° |
| 2026-04-30 22:08 | 37.81990 | -83.60629 | 36239 ft | 349 kts | 257° |
| 2026-04-30 22:08 | 37.80285 | -83.66340 | 36240 ft | 349 kts | 257° |
| 2026-04-30 22:09 | 37.78582 | -83.72025 | 36175 ft | 349 kts | 256° |
| 2026-04-30 22:09 | 37.76861 | -83.77759 | 36238 ft | 349 kts | 256° |
| 2026-04-30 22:10 | 37.75179 | -83.83355 | 36239 ft | 348 kts | 257° |
| 2026-04-30 22:10 | 37.73458 | -83.89064 | 36250 ft | 348 kts | 257° |
| 2026-04-30 22:11 | 37.70905 | -83.97528 | 36238 ft | 347 kts | 256° |
| 2026-04-30 22:12 | 37.69178 | -84.03234 | 36251 ft | 348 kts | 256° |
| 2026-04-30 22:12 | 37.67451 | -84.08924 | 36239 ft | 348 kts | 256° |
| 2026-04-30 22:13 | 37.65719 | -84.14619 | 36254 ft | 348 kts | 256° |
| 2026-04-30 22:13 | 37.63981 | -84.20310 | 36254 ft | 348 kts | 256° |
| 2026-04-30 22:14 | 37.62263 | -84.25921 | 36257 ft | 348 kts | 256° |
| 2026-04-30 22:14 | 37.60520 | -84.31606 | 36250 ft | 348 kts | 256° |
| 2026-04-30 22:15 | 37.58768 | -84.37304 | 36249 ft | 349 kts | 256° |
| 2026-04-30 22:15 | 37.57011 | -84.43006 | 36252 ft | 350 kts | 256° |
| 2026-04-30 22:16 | 37.55247 | -84.48721 | 36254 ft | 350 kts | 256° |
| 2026-04-30 22:17 | 37.51711 | -84.60145 | 36256 ft | 350 kts | 256° |
| 2026-04-30 22:17 | 37.49049 | -84.68711 | 36257 ft | 350 kts | 256° |
| 2026-04-30 22:18 | 37.46366 | -84.77202 | 36592 ft | 346 kts | 256° |
| 2026-04-30 22:19 | 37.44605 | -84.82861 | 36489 ft | 350 kts | 256° |
| 2026-04-30 22:19 | 37.43752 | -84.85735 | 36463 ft | 351 kts | 257° |
| 2026-04-30 22:20 | 37.41426 | -84.94409 | 36623 ft | 346 kts | 259° |